createdAt,value
2023-01-30T00:04:30.580Z,73.38
2023-01-30T00:09:32.223Z,72.78
2023-01-30T00:14:33.849Z,73.23
2023-01-30T00:19:35.479Z,72.61
2023-01-30T00:24:37.429Z,72.70
2023-01-30T00:29:39.197Z,71.85
2023-01-30T00:34:40.818Z,72.15
2023-01-30T00:39:43.117Z,72.57
2023-01-30T00:45:03.401Z,72.25
2023-01-30T00:50:05.855Z,72.52
2023-01-30T00:55:08.212Z,72.19
2023-01-30T01:00:10.599Z,72.81
2023-01-30T01:05:15.493Z,73.01
2023-01-30T01:10:17.776Z,73.46
2023-01-30T01:15:21.023Z,73.12
2023-01-30T01:20:23.629Z,72.91
2023-01-30T01:25:25.858Z,73.49
2023-01-30T01:30:27.535Z,74.18
2023-01-30T01:35:29.155Z,74.55
2023-01-30T01:40:49.467Z,75.76
2023-01-30T01:45:59.086Z,75.73
2023-01-30T01:51:36.084Z,76.79
2023-01-30T01:56:40.887Z,77.24
2023-01-30T02:01:42.549Z,77.68
2023-01-30T02:06:44.465Z,77.89
2023-01-30T02:11:50.680Z,78.71
2023-01-30T02:16:52.290Z,79.16
2023-01-30T02:22:16.156Z,79.73
2023-01-30T02:27:26.507Z,79.56
2023-01-30T02:32:49.119Z,79.49
2023-01-30T02:37:59.773Z,79.62
2023-01-30T02:43:13.573Z,79.53
2023-01-30T02:48:35.692Z,79.22
2023-01-30T02:53:37.590Z,78.81
2023-01-30T02:58:43.835Z,79.23
2023-01-30T03:04:03.751Z,79.38
2023-01-30T03:09:28.917Z,79.49
2023-01-30T03:14:52.467Z,79.35
2023-01-30T03:19:55.362Z,79.66
2023-01-30T03:24:57.193Z,79.40
2023-01-30T03:29:58.961Z,78.71
2023-01-30T03:35:00.710Z,78.66
2023-01-30T03:40:02.490Z,79.15
2023-01-30T03:45:04.680Z,78.21
2023-01-30T03:50:06.682Z,78.68
2023-01-30T03:55:09.115Z,78.14
2023-01-30T04:00:11.666Z,78.43
2023-01-30T04:05:23.642Z,78.42
2023-01-30T04:10:30.179Z,78.22
2023-01-30T04:15:32.559Z,78.37
2023-01-30T04:20:52.763Z,77.97
2023-01-30T04:26:04.233Z,78.65
2023-01-30T04:31:09.061Z,78.75
2023-01-30T04:36:29.370Z,78.73
2023-01-30T04:41:31.445Z,77.97
2023-01-30T04:46:35.820Z,77.94
2023-01-30T04:51:38.160Z,77.47
2023-01-30T04:56:39.855Z,77.19
2023-01-30T05:01:42.177Z,76.57
2023-01-30T05:06:43.866Z,77.01
2023-01-30T05:11:45.964Z,76.99
2023-01-30T05:16:47.687Z,77.14
2023-01-30T05:21:49.475Z,77.09
2023-01-30T05:26:51.074Z,76.46
2023-01-30T05:31:52.748Z,76.89
2023-01-30T05:36:54.396Z,76.69
2023-01-30T05:41:56.021Z,77.41
2023-01-30T05:46:57.908Z,77.85
2023-01-30T05:51:59.655Z,78.41
2023-01-30T05:57:01.293Z,78.55
2023-01-30T06:02:02.989Z,78.36
2023-01-30T06:07:04.652Z,78.22
2023-01-30T06:12:07.493Z,77.96
2023-01-30T06:17:09.234Z,77.50
2023-01-30T06:22:10.866Z,77.51
2023-01-30T06:27:13.330Z,78.20
2023-01-30T06:32:15.117Z,78.40
2023-01-30T06:37:16.908Z,80.97
2023-01-30T06:42:18.626Z,81.16
2023-01-30T06:47:20.288Z,81.71
2023-01-30T06:52:21.909Z,82.54
2023-01-30T06:57:23.567Z,84.76
2023-01-30T07:02:25.248Z,87.06
2023-01-30T07:07:26.994Z,89.06
2023-01-30T07:12:28.982Z,90.55
2023-01-30T07:17:30.655Z,88.88
2023-01-30T07:22:32.264Z,87.92
2023-01-30T07:27:34.179Z,87.86
2023-01-30T07:32:35.798Z,87.11
2023-01-30T07:37:37.414Z,86.09
2023-01-30T07:42:39.032Z,85.37
2023-01-30T07:47:40.676Z,84.31
2023-01-30T07:52:42.276Z,83.79
2023-01-30T07:57:44.100Z,85.10
2023-01-30T08:02:45.715Z,85.32
2023-01-30T08:07:47.571Z,86.22
2023-01-30T08:12:52.692Z,86.53
2023-01-30T08:17:56.160Z,86.29
2023-01-30T08:22:59.177Z,88.59
2023-01-30T08:28:01.442Z,90.33
2023-01-30T08:33:03.056Z,90.28
2023-01-30T08:38:07.252Z,89.08
2023-01-30T08:43:10.915Z,87.78
2023-01-30T08:48:12.600Z,87.32
2023-01-30T08:53:14.248Z,86.99
2023-01-30T08:58:15.852Z,85.76
2023-01-30T09:03:18.532Z,85.36
2023-01-30T09:08:20.148Z,85.37
2023-01-30T09:27:12.537Z,83.26
2023-01-30T09:32:14.242Z,83.48
2023-01-30T09:37:15.843Z,82.52
2023-01-30T09:42:50.220Z,83.01
2023-01-30T09:48:25.248Z,83.86
2023-01-30T09:53:35.696Z,82.49
2023-01-30T09:58:51.418Z,82.42
2023-01-30T10:04:05.513Z,81.30
2023-01-30T10:09:42.254Z,79.27
2023-01-30T10:15:08.941Z,79.27
2023-01-30T10:20:22.816Z,78.11
2023-01-30T10:25:50.760Z,78.16
2023-01-30T10:30:55.434Z,76.74
2023-01-30T10:36:04.950Z,76.86
2023-01-30T10:41:31.514Z,77.04
2023-01-30T10:46:59.219Z,77.22
2023-01-30T10:52:03.202Z,77.13
2023-01-30T10:57:26.440Z,78.20
2023-01-30T11:02:51.754Z,78.33
2023-01-30T11:07:53.519Z,79.37
2023-01-30T11:13:14.670Z,79.72
2023-01-30T11:23:43.059Z,80.36
2023-01-30T11:28:48.485Z,80.67
2023-01-30T11:34:05.270Z,81.15
2023-01-30T11:39:13.195Z,81.56
2023-01-30T11:44:15.069Z,81.89
2023-01-30T11:49:46.729Z,81.86
2023-01-30T11:54:44.562Z,82.17
2023-01-30T11:59:48.994Z,82.04
2023-01-30T12:04:54.023Z,82.13
2023-01-30T12:09:56.888Z,81.84
2023-01-30T12:15:16.910Z,81.74
2023-01-30T12:20:24.791Z,81.36
2023-01-30T12:25:32.685Z,81.37
2023-01-30T12:30:42.040Z,81.35
2023-01-30T12:36:05.543Z,80.23
2023-01-30T12:41:12.461Z,80.70
2023-01-30T12:46:22.894Z,80.39
2023-01-30T12:51:39.442Z,80.35
2023-01-30T12:57:08.390Z,80.37
2023-01-30T13:02:33.105Z,80.34
2023-01-30T13:07:43.812Z,80.49
2023-01-30T13:13:04.159Z,80.56
2023-01-30T13:18:15.249Z,80.21
2023-01-30T13:23:25.566Z,79.85
2023-01-30T13:28:38.906Z,79.13
2023-01-30T13:33:43.810Z,78.50
2023-01-30T13:39:12.279Z,78.45
2023-01-30T13:44:32.769Z,78.57
2023-01-30T13:49:47.975Z,78.27
2023-01-30T13:54:54.560Z,78.64
2023-01-30T14:00:19.140Z,78.52
2023-01-30T14:06:00.749Z,78.83
2023-01-30T14:11:02.688Z,77.61
2023-01-30T14:16:05.702Z,77.05
2023-01-30T14:21:17.209Z,77.08
2023-01-30T14:26:47.636Z,77.76
2023-01-30T14:31:50.200Z,78.08
2023-01-30T14:36:52.913Z,78.63
2023-01-30T14:42:39.908Z,78.48
2023-01-30T14:47:47.641Z,78.77
2023-01-30T14:52:54.931Z,79.25
2023-01-30T14:58:00.081Z,79.06
2023-01-30T15:03:04.631Z,78.16
2023-01-30T15:08:19.758Z,78.68
2023-01-30T15:13:24.399Z,79.59
2023-01-30T15:18:35.240Z,79.26
2023-01-30T15:23:58.941Z,79.91
2023-01-30T15:29:38.986Z,81.16
2023-01-30T15:34:49.815Z,81.27
2023-01-30T15:39:51.442Z,83.57
2023-01-30T15:44:58.902Z,86.30
2023-01-30T15:50:04.982Z,87.76
2023-01-30T15:55:07.798Z,88.88
2023-01-30T16:00:20.692Z,89.32
2023-01-30T16:05:26.841Z,89.45
2023-01-30T16:10:30.568Z,88.85
2023-01-30T16:15:39.138Z,88.62
2023-01-30T16:21:00.321Z,88.00
2023-01-30T16:26:03.702Z,88.68
2023-01-30T16:31:07.566Z,87.86
2023-01-30T16:36:21.458Z,87.53
2023-01-30T16:41:43.318Z,86.55
2023-01-30T16:46:55.971Z,85.82
2023-01-30T16:52:21.078Z,85.51
2023-01-30T16:57:45.606Z,84.42
2023-01-30T17:02:51.771Z,84.88
2023-01-30T17:07:55.718Z,85.59
2023-01-30T17:12:57.993Z,86.89
2023-01-30T17:18:00.028Z,88.04
2023-01-30T17:23:05.848Z,88.84
2023-01-30T17:28:08.201Z,89.38
2023-01-30T17:33:11.944Z,88.90
2023-01-30T17:38:13.642Z,87.19
2023-01-30T17:43:15.776Z,86.16
2023-01-30T17:48:17.434Z,87.47
2023-01-30T17:53:19.050Z,87.65
2023-01-30T17:58:20.888Z,87.92
2023-01-30T18:03:22.517Z,88.34
2023-01-30T18:08:24.175Z,87.43
2023-01-30T18:13:25.817Z,87.12
2023-01-30T18:18:27.627Z,87.41
2023-01-30T18:23:29.345Z,87.28
2023-01-30T18:28:31.143Z,86.29
2023-01-30T18:33:34.185Z,86.09
2023-01-30T18:38:36.492Z,85.60
2023-01-30T18:43:38.419Z,84.34
2023-01-30T18:48:41.470Z,84.40
2023-01-30T18:53:43.736Z,84.26
2023-01-30T18:58:45.528Z,83.21
2023-01-30T19:03:47.326Z,82.81
2023-01-30T19:08:48.936Z,82.66
2023-01-30T19:13:50.596Z,81.41
2023-01-30T19:18:53.539Z,81.76
2023-01-30T19:23:56.595Z,81.96
2023-01-30T19:28:58.608Z,81.98
2023-01-30T19:34:01.612Z,81.90
2023-01-30T19:39:05.641Z,81.80
2023-01-30T19:44:08.355Z,81.49
2023-01-30T19:49:11.833Z,80.53
2023-01-30T19:54:13.494Z,80.71
2023-01-30T19:59:16.738Z,79.13
2023-01-30T20:04:18.421Z,79.86
2023-01-30T20:09:20.146Z,77.64
2023-01-30T20:14:21.789Z,77.39
2023-01-30T20:19:23.504Z,77.80
2023-01-30T20:24:25.170Z,78.37
2023-01-30T20:29:26.818Z,79.15
2023-01-30T20:34:28.805Z,78.02
2023-01-30T20:39:30.471Z,78.30
2023-01-30T20:44:32.440Z,78.91
2023-01-30T20:49:34.080Z,79.15
2023-01-30T20:54:35.811Z,79.27
2023-01-30T20:59:38.282Z,79.39
2023-01-30T21:04:40.093Z,79.28
2023-01-30T21:09:41.756Z,79.70
2023-01-30T21:14:43.466Z,79.80
2023-01-30T21:19:45.123Z,79.07
2023-01-30T21:24:46.766Z,80.12
2023-01-30T21:29:48.447Z,79.88
2023-01-30T21:34:50.056Z,79.23
2023-01-30T21:40:10.259Z,80.00
2023-01-30T21:45:11.978Z,82.68
2023-01-30T21:50:13.755Z,85.64
2023-01-30T21:55:15.404Z,86.85
2023-01-30T22:00:17.274Z,87.94
2023-01-30T22:05:19.307Z,88.01
2023-01-30T22:10:21.081Z,88.17
2023-01-30T22:15:22.889Z,87.33
2023-01-30T22:20:24.579Z,87.45
2023-01-30T22:25:26.209Z,85.59
2023-01-30T22:30:27.869Z,84.73
2023-01-30T22:35:29.791Z,84.16
2023-01-30T22:40:32.055Z,82.09
2023-01-30T22:45:37.084Z,80.95
2023-01-30T22:50:38.718Z,79.87
2023-01-30T22:55:40.456Z,80.00
2023-01-30T23:00:42.062Z,79.39
2023-01-30T23:05:43.792Z,80.29
2023-01-30T23:10:45.422Z,80.68
2023-01-30T23:15:47.095Z,80.45
2023-01-30T23:20:48.685Z,80.27
2023-01-30T23:25:50.337Z,80.52
2023-01-30T23:30:51.985Z,79.75
2023-01-30T23:35:53.667Z,80.65
2023-01-30T23:41:13.369Z,83.53
2023-01-30T23:46:21.823Z,84.28
2023-01-30T23:51:27.114Z,84.17
2023-01-30T23:56:30.434Z,83.45
